Information for Sydney Kingsford Smith International Airport

back to airport list

ICAO Code:YSSY Country:Australia
Airport Name:Sydney Kingsford Smith International Airport Is Hub:No
Latitude:-33.9461 Longitude:151.177
Scheduled Departures:0 Scheduled Arrivals:0
Total Past Departures:0 Total Past Arrivals:0
Pilots Based:0 Current Pilot Location:0
Current METAR: 2018/02/25 06:56 KLAS 250656Z 21004KT 10SM FEW120 06/M12 A3012 RMK AO2 SLP203 T00561122


Nearby Destination Airports

ICAO Airport Country GC Distance View
No destination airports within a 500 NM radius!


+ Show Timetable

Scheduled Departures from YSSY

Flight To Destination Days Dep. Time Aircraft Info
No Scheduled Departures!


Scheduled Arrivals to YSSY

Flight From Origin Days Arr. Time Aircraft Info
No Scheduled Arrivals!
+ Show Recent Flight Info

Recent Departures from YSSY

Flight To Destination Pilot Flighttime Landingrate Aircraft View
No Recent Departure PIREPS!


Recent Arrivals to YSSY

Flight From Origin Pilot Flighttime Landingrate Aircraft View
No Recent Arrival PIREPS!
+ Show Pilot Information

Pilots based at YSSY

Avatar Pilot ID Name Location Rank View Profile
No Pilots are based at this airport!


Pilots currently at YSSY

Avatar Pilot ID Name Location Rank On Location since View Profile
Currently there are no pilots at this airport!
- Hide Map